Terminal Aerodrome Forecast
Issued by NWS

Home | Current Version | Previous Version | Text Only | Print | Product List | Glossary On
Versions: 1 2 3 4 5 6 7 8 9 10 11 12 13 14 15 16 17 18 19 20 21
895
FTUS46 KMTR 310539
TAFSNS
TAF
KSNS 310539Z 3106/0106 29008KT 6SM BR OVC005
     FM311630 29005KT P6SM FEW009
     FM312000 29012KT P6SM SKC
     FM010300 29008KT P6SM BKN009=

USA.gov is the U.S. government's official web portal to all federal, state and local government web resources and services.